createdAt,value
2023-01-27T00:02:04.035Z,15.10
2023-01-27T00:04:41.370Z,15.90
2023-01-27T00:07:10.211Z,14.10
2023-01-27T00:09:41.848Z,15.70
2023-01-27T00:12:38.766Z,14.90
2023-01-27T00:15:07.880Z,16.40
2023-01-27T00:17:36.335Z,14.70
2023-01-27T00:20:04.253Z,16.30
2023-01-27T00:22:57.932Z,15.40
2023-01-27T00:25:25.044Z,15.40
2023-01-27T00:27:52.333Z,14.80
2023-01-27T00:30:19.718Z,14.90
2023-01-27T00:33:05.507Z,13.00
2023-01-27T00:35:32.966Z,14.30
2023-01-27T00:38:00.269Z,13.50
2023-01-27T00:40:27.540Z,12.80
2023-01-27T00:42:55.285Z,12.00
2023-01-27T00:45:40.988Z,12.50
2023-01-27T00:48:08.185Z,13.30
2023-01-27T00:50:35.540Z,12.90
2023-01-27T00:53:03.252Z,12.50
2023-01-27T00:55:31.357Z,13.70
2023-01-27T00:57:58.645Z,12.60
2023-01-27T01:00:25.808Z,13.30
2023-01-27T01:02:53.218Z,11.70
2023-01-27T01:05:20.331Z,11.80
2023-01-27T01:07:58.796Z,10.70
2023-01-27T01:10:25.883Z,11.70
2023-01-27T01:12:52.977Z,11.80
2023-01-27T01:15:19.734Z,12.00
2023-01-27T01:17:46.624Z,11.70
2023-01-27T01:20:13.982Z,13.20
2023-01-27T01:22:41.055Z,11.80
2023-01-27T01:25:08.388Z,11.10
2023-01-27T01:27:35.389Z,11.20
2023-01-27T01:30:02.599Z,11.90
2023-01-27T01:32:29.800Z,12.20
2023-01-27T01:34:57.187Z,11.50
2023-01-27T01:37:24.248Z,10.80
2023-01-27T01:39:51.394Z,10.50
2023-01-27T01:42:18.597Z,11.30
2023-01-27T01:44:45.699Z,9.50
2023-01-27T01:47:16.568Z,9.70
2023-01-27T01:49:46.154Z,10.10
2023-01-27T01:52:22.776Z,10.00
2023-01-27T01:54:56.021Z,9.10
2023-01-27T01:57:32.738Z,9.80
2023-01-27T02:00:07.261Z,9.80
2023-01-27T02:02:34.897Z,10.20
2023-01-27T02:05:08.251Z,9.60
2023-01-27T02:07:40.486Z,9.90
2023-01-27T02:10:07.594Z,10.10
2023-01-27T02:12:34.784Z,9.90
2023-01-27T02:15:01.714Z,10.50
2023-01-27T02:17:36.630Z,9.80
2023-01-27T02:20:15.390Z,10.20
2023-01-27T02:22:56.401Z,9.50
2023-01-27T02:25:29.354Z,9.10
2023-01-27T02:27:56.189Z,8.60
2023-01-27T02:30:24.278Z,9.10
2023-01-27T02:32:51.350Z,8.20
2023-01-27T02:35:27.644Z,8.10
2023-01-27T02:37:54.906Z,9.00
2023-01-27T02:40:22.881Z,9.10
2023-01-27T02:42:50.397Z,9.70
2023-01-27T02:45:16.941Z,9.60
2023-01-27T02:47:43.874Z,9.90
2023-01-27T02:50:11.231Z,9.60
2023-01-27T02:52:38.153Z,9.30
2023-01-27T02:55:14.245Z,9.30
2023-01-27T02:57:41.409Z,9.60
2023-01-27T03:00:09.825Z,8.50
2023-01-27T03:02:36.889Z,7.70
2023-01-27T03:05:04.204Z,8.80
2023-01-27T03:07:31.584Z,8.60
2023-01-27T03:09:58.411Z,9.10
2023-01-27T03:12:25.511Z,8.50
2023-01-27T03:15:11.978Z,8.90
2023-01-27T03:17:57.967Z,8.90
2023-01-27T03:20:24.856Z,7.90
2023-01-27T03:22:51.980Z,8.70
2023-01-27T03:25:18.947Z,8.50
2023-01-27T03:27:45.728Z,9.00
2023-01-27T03:30:13.032Z,7.40
2023-01-27T03:32:46.594Z,8.40
2023-01-27T03:35:17.172Z,8.30
2023-01-27T03:38:04.173Z,8.70
2023-01-27T03:40:49.357Z,8.40
2023-01-27T03:43:35.353Z,8.70
2023-01-27T03:46:18.576Z,8.50
2023-01-27T03:48:52.402Z,8.60
2023-01-27T03:51:20.876Z,7.90
2023-01-27T03:53:47.901Z,8.60
2023-01-27T03:56:16.125Z,8.00
2023-01-27T03:58:43.748Z,8.70
2023-01-27T04:01:21.396Z,7.50
2023-01-27T04:04:07.837Z,8.60
2023-01-27T04:06:56.460Z,9.20
2023-01-27T04:09:27.732Z,7.90
2023-01-27T04:11:56.546Z,8.40
2023-01-27T04:14:35.110Z,7.40
2023-01-27T04:17:12.498Z,7.40
2023-01-27T04:19:40.085Z,7.10
2023-01-27T04:22:08.365Z,7.00
2023-01-27T04:24:35.276Z,6.70
2023-01-27T04:27:10.007Z,7.20
2023-01-27T04:29:40.892Z,7.20
2023-01-27T04:32:10.045Z,6.90
2023-01-27T04:34:37.715Z,6.20
2023-01-27T04:37:06.736Z,6.90
2023-01-27T04:39:34.269Z,6.80
2023-01-27T04:42:01.524Z,6.80
2023-01-27T04:44:28.545Z,7.40
2023-01-27T04:46:55.536Z,6.10
2023-01-27T04:49:22.878Z,6.50
2023-01-27T04:51:50.359Z,6.40
2023-01-27T04:54:17.332Z,6.70
2023-01-27T04:56:56.591Z,6.60
2023-01-27T04:59:23.778Z,6.70
2023-01-27T05:01:50.711Z,5.60
2023-01-27T05:04:18.114Z,5.70
2023-01-27T05:06:45.293Z,5.90
2023-01-27T05:09:12.328Z,5.30
2023-01-27T05:11:42.094Z,6.20
2023-01-27T05:14:09.088Z,5.50
2023-01-27T05:16:38.470Z,6.20
2023-01-27T05:19:05.689Z,6.20
2023-01-27T05:21:35.127Z,5.30
2023-01-27T05:24:02.453Z,5.10
2023-01-27T05:26:29.804Z,5.00
2023-01-27T05:28:58.168Z,5.90
2023-01-27T05:31:28.314Z,5.40
2023-01-27T05:33:56.498Z,5.60
2023-01-27T05:36:24.727Z,5.30
2023-01-27T05:38:51.740Z,5.90
2023-01-27T05:41:19.737Z,4.90
2023-01-27T05:43:51.169Z,5.00
2023-01-27T05:46:21.047Z,4.80
2023-01-27T05:48:50.412Z,5.20
2023-01-27T05:51:19.849Z,5.30
2023-01-27T05:53:47.275Z,4.90
2023-01-27T05:56:17.041Z,5.30
2023-01-27T05:58:44.520Z,4.70
2023-01-27T06:01:19.592Z,4.40
2023-01-27T06:03:47.299Z,4.70
2023-01-27T06:06:15.360Z,4.20
2023-01-27T06:08:43.098Z,4.30
2023-01-27T06:11:10.067Z,4.50
2023-01-27T06:13:38.789Z,4.10
2023-01-27T06:16:08.314Z,4.00
2023-01-27T06:18:35.338Z,3.70
2023-01-27T06:21:04.561Z,3.30
2023-01-27T06:23:32.091Z,3.30
2023-01-27T06:26:09.315Z,3.30
2023-01-27T06:28:39.973Z,3.40
2023-01-27T06:31:21.577Z,3.40
2023-01-27T06:33:49.197Z,3.90
2023-01-27T06:36:20.103Z,3.10
2023-01-27T06:38:48.034Z,3.10
2023-01-27T06:41:15.023Z,2.90
2023-01-27T06:43:41.852Z,2.60
2023-01-27T06:46:08.930Z,3.00
2023-01-27T06:48:35.687Z,2.90
2023-01-27T06:51:02.750Z,2.60
2023-01-27T06:53:31.350Z,2.40
2023-01-27T06:56:00.489Z,2.10
2023-01-27T06:58:30.595Z,2.20
2023-01-27T07:00:57.369Z,2.20
2023-01-27T07:03:24.481Z,2.20
2023-01-27T07:05:52.679Z,2.10
2023-01-27T07:08:19.371Z,1.90
2023-01-27T07:10:48.413Z,1.90
2023-01-27T07:13:16.127Z,2.10
2023-01-27T07:15:43.167Z,1.80
2023-01-27T07:18:12.318Z,1.60
2023-01-27T07:20:40.348Z,1.50
2023-01-27T07:23:07.405Z,1.50
2023-01-27T07:25:37.918Z,1.80
2023-01-27T07:28:05.375Z,1.80
2023-01-27T07:30:36.046Z,1.50
2023-01-27T07:33:04.683Z,1.80
2023-01-27T07:35:31.358Z,1.70
2023-01-27T07:37:58.495Z,1.60
2023-01-27T07:40:25.600Z,1.60
2023-01-27T07:42:52.416Z,1.80
2023-01-27T07:45:19.249Z,1.70
2023-01-27T07:47:48.496Z,1.80
2023-01-27T07:50:15.875Z,1.60
2023-01-27T07:52:46.459Z,1.90
2023-01-27T07:55:13.768Z,1.90
2023-01-27T07:57:40.796Z,2.00
2023-01-27T08:00:08.249Z,1.90
2023-01-27T08:02:35.431Z,1.70
2023-01-27T08:05:02.393Z,1.70
2023-01-27T08:07:29.471Z,1.50
2023-01-27T08:09:57.298Z,1.60
2023-01-27T08:12:24.053Z,1.20
2023-01-27T08:14:51.191Z,1.30
2023-01-27T08:17:17.802Z,1.30
2023-01-27T08:19:44.877Z,1.40
2023-01-27T08:22:12.101Z,1.30
2023-01-27T08:24:39.163Z,1.30
2023-01-27T08:27:08.206Z,1.60
2023-01-27T08:29:35.746Z,1.20
2023-01-27T08:32:05.609Z,1.20
2023-01-27T08:34:33.374Z,1.00
2023-01-27T08:37:00.321Z,0.90
2023-01-27T08:39:27.286Z,1.00
2023-01-27T08:41:54.372Z,1.00
2023-01-27T08:44:30.253Z,1.00
2023-01-27T08:47:00.195Z,1.00
2023-01-27T08:49:27.065Z,0.80
2023-01-27T08:51:54.022Z,0.70
2023-01-27T08:54:20.957Z,0.70
2023-01-27T08:56:48.286Z,0.70
2023-01-27T08:59:15.199Z,0.80
2023-01-27T09:01:42.066Z,0.70
2023-01-27T09:04:08.936Z,0.60
2023-01-27T09:06:35.857Z,0.60
2023-01-27T09:09:14.504Z,0.70
2023-01-27T09:11:42.923Z,0.60
2023-01-27T09:14:10.733Z,0.70
2023-01-27T09:16:37.729Z,0.80
2023-01-27T09:19:04.991Z,0.70
2023-01-27T09:21:34.588Z,0.60
2023-01-27T09:24:02.681Z,0.70
2023-01-27T09:26:29.358Z,0.70
2023-01-27T09:28:56.776Z,0.70
2023-01-27T09:31:24.022Z,0.60
2023-01-27T09:33:50.983Z,0.70
2023-01-27T09:36:21.513Z,0.90
2023-01-27T09:38:59.090Z,0.70
2023-01-27T09:42:00.496Z,0.80
2023-01-27T09:44:57.570Z,1.00
2023-01-27T09:47:43.137Z,0.60
2023-01-27T09:51:07.071Z,0.80
2023-01-27T09:53:57.710Z,0.90
2023-01-27T09:56:58.975Z,0.80
2023-01-27T09:59:44.840Z,0.90
2023-01-27T10:02:33.498Z,0.90
2023-01-27T10:05:21.907Z,0.90
2023-01-27T10:07:51.672Z,0.70
2023-01-27T10:10:36.199Z,0.70
2023-01-27T10:13:19.568Z,0.70
2023-01-27T10:15:52.422Z,0.80
2023-01-27T10:19:01.868Z,0.60
2023-01-27T10:21:47.012Z,0.60
2023-01-27T10:24:53.912Z,0.80
2023-01-27T10:27:23.708Z,1.40
2023-01-27T10:29:58.933Z,0.80
2023-01-27T10:32:41.231Z,0.80
2023-01-27T10:35:19.282Z,0.80
2023-01-27T10:37:59.361Z,0.80
2023-01-27T10:40:41.702Z,0.70
2023-01-27T10:43:41.724Z,0.60
2023-01-27T10:46:20.872Z,0.60
2023-01-27T10:49:26.947Z,0.80
2023-01-27T10:52:08.965Z,0.80
2023-01-27T10:54:52.741Z,0.70
2023-01-27T10:57:35.870Z,0.60
2023-01-27T11:01:18.106Z,1.00
2023-01-27T11:03:52.481Z,0.70
2023-01-27T11:06:25.369Z,1.00
2023-01-27T11:08:56.507Z,0.60
2023-01-27T11:11:44.433Z,0.80
2023-01-27T11:14:16.752Z,0.70
2023-01-27T11:16:49.367Z,0.70
2023-01-27T11:19:24.389Z,0.90
2023-01-27T11:22:06.700Z,0.70
2023-01-27T11:25:03.660Z,1.00
2023-01-27T11:27:49.089Z,0.50
2023-01-27T11:30:22.372Z,0.80
2023-01-27T11:33:10.099Z,0.40
2023-01-27T11:35:36.685Z,0.60
2023-01-27T11:38:15.106Z,0.60
2023-01-27T11:40:43.966Z,0.80
2023-01-27T11:43:17.510Z,0.70
2023-01-27T11:45:46.512Z,0.60
2023-01-27T11:48:16.425Z,0.40
2023-01-27T11:50:45.086Z,1.60
2023-01-27T11:53:22.778Z,0.80
2023-01-27T11:55:55.768Z,0.50
2023-01-27T11:58:34.107Z,0.70
2023-01-27T12:01:06.109Z,0.80
2023-01-27T12:04:00.161Z,0.80
2023-01-27T12:06:55.315Z,0.90
2023-01-27T12:09:34.355Z,0.70
2023-01-27T12:12:21.034Z,0.70
2023-01-27T12:14:56.976Z,0.40
2023-01-27T12:17:39.087Z,0.60
2023-01-27T12:20:23.241Z,0.60
2023-01-27T12:22:59.102Z,0.90
2023-01-27T12:25:28.554Z,0.70
2023-01-27T12:27:58.908Z,0.80
2023-01-27T12:30:29.673Z,0.60
2023-01-27T12:32:57.998Z,0.70
2023-01-27T12:35:29.060Z,0.60
2023-01-27T12:38:03.231Z,0.50
2023-01-27T12:40:32.383Z,0.60
2023-01-27T12:43:02.414Z,0.60
2023-01-27T12:45:34.865Z,0.80
2023-01-27T12:48:13.590Z,0.70
2023-01-27T12:50:51.035Z,0.70
2023-01-27T12:53:22.752Z,0.80
2023-01-27T12:56:09.100Z,0.60
2023-01-27T12:59:05.285Z,0.70
2023-01-27T13:01:36.339Z,0.80
2023-01-27T13:04:07.014Z,0.70
2023-01-27T13:06:33.634Z,0.80
2023-01-27T13:09:02.228Z,0.80
2023-01-27T13:11:39.084Z,0.70
2023-01-27T13:14:16.750Z,0.60
2023-01-27T13:16:53.954Z,0.80
2023-01-27T13:19:26.327Z,0.80
2023-01-27T13:21:55.253Z,0.40
2023-01-27T13:24:34.717Z,0.50
2023-01-27T13:27:03.989Z,0.80
2023-01-27T13:29:34.789Z,0.60
2023-01-27T13:32:19.875Z,0.70
2023-01-27T13:34:58.294Z,0.70
2023-01-27T13:37:33.427Z,0.80
2023-01-27T13:40:24.037Z,1.30
2023-01-27T13:43:04.171Z,1.00
2023-01-27T13:45:37.488Z,0.80
2023-01-27T13:48:06.023Z,0.70
2023-01-27T13:50:47.041Z,0.80
2023-01-27T13:53:19.638Z,0.70
2023-01-27T13:56:31.325Z,0.70
2023-01-27T13:59:25.826Z,0.70
2023-01-27T14:02:30.196Z,0.90
2023-01-27T14:05:22.547Z,0.70
2023-01-27T14:08:17.784Z,0.90
2023-01-27T14:11:18.637Z,0.90
2023-01-27T14:14:05.790Z,0.70
2023-01-27T14:16:39.667Z,0.90
2023-01-27T14:19:36.478Z,0.80
2023-01-27T14:22:36.319Z,1.10
2023-01-27T14:25:20.090Z,0.80
2023-01-27T14:28:08.467Z,0.60
2023-01-27T14:30:45.041Z,0.80
2023-01-27T14:33:42.956Z,0.70
2023-01-27T14:36:43.297Z,0.70
2023-01-27T14:39:51.553Z,0.70
2023-01-27T14:42:55.617Z,0.80
2023-01-27T14:45:28.669Z,0.90
2023-01-27T14:48:46.390Z,0.90
2023-01-27T14:51:16.916Z,1.00
2023-01-27T14:54:24.158Z,0.90
2023-01-27T14:56:56.750Z,0.70
2023-01-27T14:59:42.349Z,0.90
2023-01-27T15:02:20.999Z,0.70
2023-01-27T15:04:57.632Z,0.90
2023-01-27T15:08:02.682Z,1.40
2023-01-27T15:10:31.282Z,1.30
2023-01-27T15:13:23.027Z,1.80
2023-01-27T15:16:20.925Z,1.30
2023-01-27T15:19:06.087Z,1.20
2023-01-27T15:22:13.992Z,1.30
2023-01-27T15:24:43.391Z,1.20
2023-01-27T15:27:11.165Z,1.00
2023-01-27T15:29:38.061Z,1.10
2023-01-27T15:32:26.255Z,1.20
2023-01-27T15:35:15.784Z,1.40
2023-01-27T15:38:05.429Z,1.10
2023-01-27T15:41:01.853Z,0.90
2023-01-27T15:43:32.718Z,0.90
2023-01-27T15:46:23.865Z,1.10
2023-01-27T15:48:51.012Z,0.90
2023-01-27T15:51:21.168Z,0.90
2023-01-27T15:53:55.066Z,1.10
2023-01-27T15:56:42.819Z,0.80
2023-01-27T15:59:17.909Z,1.10
2023-01-27T16:01:44.789Z,1.00
2023-01-27T16:04:11.600Z,1.10
2023-01-27T16:07:03.907Z,1.40
2023-01-27T16:09:37.048Z,1.50
2023-01-27T16:12:28.531Z,1.60
2023-01-27T16:15:01.343Z,2.10
2023-01-27T16:17:34.582Z,1.60
2023-01-27T16:20:26.075Z,1.60
2023-01-27T16:23:05.544Z,1.90
2023-01-27T16:25:59.495Z,1.70
2023-01-27T16:28:31.106Z,1.40
2023-01-27T16:31:01.187Z,2.10
2023-01-27T16:33:57.030Z,2.20
2023-01-27T16:36:38.098Z,2.50
2023-01-27T16:39:32.927Z,2.00
2023-01-27T16:42:00.642Z,1.50
2023-01-27T16:44:49.848Z,1.40
2023-01-27T16:47:25.607Z,1.40
2023-01-27T16:49:56.020Z,1.30
2023-01-27T16:52:41.168Z,1.30
2023-01-27T16:55:24.719Z,1.50
2023-01-27T16:57:53.463Z,1.60
2023-01-27T17:00:26.903Z,1.40
2023-01-27T17:03:04.765Z,1.70
2023-01-27T17:05:31.817Z,1.30
2023-01-27T17:08:19.268Z,1.60
2023-01-27T17:10:51.227Z,1.50
2023-01-27T17:13:30.127Z,1.60
2023-01-27T17:15:58.082Z,1.60
2023-01-27T17:18:25.614Z,2.80
2023-01-27T17:20:53.147Z,1.80
2023-01-27T17:23:30.687Z,1.20
2023-01-27T17:25:57.761Z,2.00
2023-01-27T17:28:27.351Z,1.60
2023-01-27T17:31:07.162Z,1.30
2023-01-27T17:33:36.113Z,1.40
2023-01-27T17:36:12.807Z,1.30
2023-01-27T17:38:45.368Z,1.30
2023-01-27T17:41:36.010Z,1.40
2023-01-27T17:44:10.891Z,1.20
2023-01-27T17:46:38.220Z,1.20
2023-01-27T17:49:16.205Z,1.20
2023-01-27T17:51:49.232Z,1.40
2023-01-27T17:54:33.435Z,1.10
2023-01-27T17:57:13.924Z,0.80
2023-01-27T17:59:45.878Z,1.20
2023-01-27T18:02:35.332Z,1.10
2023-01-27T18:05:06.057Z,1.10
2023-01-27T18:07:33.486Z,0.90
2023-01-27T18:10:00.297Z,1.00
2023-01-27T18:12:32.054Z,1.10
2023-01-27T18:15:19.156Z,0.90
2023-01-27T18:17:59.012Z,1.20
2023-01-27T18:20:28.623Z,1.80
2023-01-27T18:22:56.477Z,2.60
2023-01-27T18:25:24.302Z,2.40
2023-01-27T18:27:53.843Z,1.80
2023-01-27T18:30:22.251Z,1.10
2023-01-27T18:32:53.399Z,0.80
2023-01-27T18:35:31.438Z,0.70
2023-01-27T18:38:04.033Z,0.70
2023-01-27T18:40:35.927Z,0.80
2023-01-27T18:43:05.265Z,0.70
2023-01-27T18:45:32.434Z,1.00
2023-01-27T18:47:59.866Z,0.70
2023-01-27T18:50:27.224Z,0.90
2023-01-27T18:52:54.562Z,1.30
2023-01-27T18:55:23.908Z,1.40
2023-01-27T18:57:55.316Z,1.30
2023-01-27T19:00:25.176Z,1.40
2023-01-27T19:02:56.227Z,1.30
2023-01-27T19:05:34.403Z,1.50
2023-01-27T19:08:01.853Z,1.00
2023-01-27T19:10:32.556Z,1.40
2023-01-27T19:13:01.158Z,1.50
2023-01-27T19:15:33.671Z,1.50
2023-01-27T19:18:06.225Z,1.50
2023-01-27T19:20:33.328Z,1.10
2023-01-27T19:23:00.281Z,1.40
2023-01-27T19:25:30.144Z,2.20
2023-01-27T19:28:03.520Z,1.20
2023-01-27T19:30:36.054Z,1.30
2023-01-27T19:33:18.205Z,1.20
2023-01-27T19:36:01.577Z,1.10
2023-01-27T19:38:29.657Z,1.10
2023-01-27T19:40:56.578Z,1.10
2023-01-27T19:43:23.476Z,1.30
2023-01-27T19:45:51.800Z,0.90
2023-01-27T19:48:21.589Z,0.90
2023-01-27T19:50:48.913Z,1.20
2023-01-27T19:53:17.040Z,1.10
2023-01-27T19:55:45.406Z,1.60
2023-01-27T19:58:25.302Z,1.50
2023-01-27T20:00:53.282Z,1.40
2023-01-27T20:03:20.744Z,1.40
2023-01-27T20:05:47.753Z,1.80
2023-01-27T20:08:19.775Z,2.00
2023-01-27T20:10:47.003Z,2.00
2023-01-27T20:13:16.336Z,1.80
2023-01-27T20:15:44.001Z,1.60
2023-01-27T20:18:15.659Z,1.50
2023-01-27T20:20:44.148Z,1.10
2023-01-27T20:23:15.304Z,1.30
2023-01-27T20:25:42.373Z,1.20
2023-01-27T20:28:10.422Z,1.80
2023-01-27T20:30:37.314Z,1.40
2023-01-27T20:33:04.739Z,1.20
2023-01-27T20:35:32.514Z,2.60
2023-01-27T20:37:59.402Z,2.20
2023-01-27T20:40:28.075Z,1.70
2023-01-27T20:42:55.312Z,1.50
2023-01-27T20:45:23.195Z,1.30
2023-01-27T20:47:54.384Z,1.50
2023-01-27T20:50:23.784Z,1.30
2023-01-27T20:52:51.917Z,1.20
2023-01-27T20:55:19.481Z,1.10
2023-01-27T20:57:47.343Z,1.20
2023-01-27T21:00:21.681Z,1.00
2023-01-27T21:02:49.730Z,1.60
2023-01-27T21:05:16.700Z,1.20
2023-01-27T21:07:44.029Z,1.50
2023-01-27T21:10:11.183Z,1.40
2023-01-27T21:12:38.150Z,1.20
2023-01-27T21:15:09.611Z,1.20
2023-01-27T21:17:36.730Z,1.30
2023-01-27T21:20:04.105Z,1.40
2023-01-27T21:22:31.035Z,1.30
2023-01-27T21:24:57.792Z,1.60
2023-01-27T21:27:25.255Z,1.50
2023-01-27T21:29:53.754Z,0.90
2023-01-27T21:32:20.574Z,0.90
2023-01-27T21:34:47.285Z,1.30
2023-01-27T21:37:14.978Z,1.10
2023-01-27T21:39:41.976Z,1.20
2023-01-27T21:42:13.342Z,1.00
2023-01-27T21:44:58.973Z,1.10
2023-01-27T21:47:25.772Z,0.80
2023-01-27T21:50:01.301Z,1.30
2023-01-27T21:52:33.610Z,1.20
2023-01-27T21:55:02.407Z,1.40
2023-01-27T21:57:29.271Z,1.30
2023-01-27T21:59:56.185Z,1.00
2023-01-27T22:02:23.455Z,1.10
2023-01-27T22:04:50.154Z,1.10
2023-01-27T22:07:18.442Z,0.90
2023-01-27T22:09:46.011Z,1.40
2023-01-27T22:12:14.625Z,1.70
2023-01-27T22:14:42.009Z,1.40
2023-01-27T22:17:09.357Z,1.40
2023-01-27T22:19:39.347Z,1.10
2023-01-27T22:22:09.474Z,0.90
2023-01-27T22:24:36.557Z,1.10
2023-01-27T22:27:04.480Z,1.10
2023-01-27T22:29:31.135Z,0.90
2023-01-27T22:31:58.088Z,1.00
2023-01-27T22:34:24.943Z,0.90
2023-01-27T22:36:52.589Z,1.00
2023-01-27T22:39:19.416Z,0.90
2023-01-27T22:41:46.982Z,0.90
2023-01-27T22:44:14.153Z,1.00
2023-01-27T22:46:42.717Z,0.80
2023-01-27T22:49:10.760Z,0.90
2023-01-27T22:51:37.992Z,0.90
2023-01-27T22:54:04.646Z,1.10
2023-01-27T22:56:34.699Z,1.00
2023-01-27T22:59:02.212Z,1.00
2023-01-27T23:01:29.696Z,1.00
2023-01-27T23:03:57.356Z,1.10
2023-01-27T23:06:24.581Z,0.90
2023-01-27T23:08:51.464Z,1.00
2023-01-27T23:11:18.694Z,0.80
2023-01-27T23:13:46.150Z,0.90
2023-01-27T23:16:13.481Z,1.00
2023-01-27T23:18:41.095Z,1.30
2023-01-27T23:21:08.651Z,0.90
2023-01-27T23:23:36.650Z,0.90
2023-01-27T23:26:10.012Z,0.90
2023-01-27T23:28:39.873Z,1.20
2023-01-27T23:31:12.141Z,0.80
2023-01-27T23:33:41.181Z,0.90
2023-01-27T23:36:10.110Z,1.00
2023-01-27T23:38:37.449Z,0.90
2023-01-27T23:41:08.075Z,0.70
2023-01-27T23:43:35.087Z,0.90
2023-01-27T23:46:02.365Z,1.20
2023-01-27T23:48:29.679Z,0.90
2023-01-27T23:50:57.015Z,0.80
2023-01-27T23:53:24.035Z,1.00
2023-01-27T23:56:00.132Z,0.70
2023-01-27T23:58:27.594Z,0.80
